Time;durP1;ratioP1;P1;durP2;ratioP2;P2;SDS_P1;SDS_P2;PMS_P1;PMS_P2;Temp;Humidity;BMP_temperature;BMP_pressure;BME280_temperature;BME280_humidity;BME280_pressure;Samples;Min_cycle;Max_cycle;Signal;HPM_P1;HPM_P2
2021/06/17 00:01:49;;;;;;;1.20;1.10;;;;;;;20.77;52.79;96225.03;5092876;28;20048;-77
2021/06/17 00:04:15;;;;;;;0.98;0.98;;;;;;;20.73;53.19;96219.47;5095058;28;20028;-77
2021/06/17 00:06:41;;;;;;;0.75;0.75;;;;;;;20.69;53.24;96226.44;5096938;28;20043;-77
2021/06/17 00:09:08;;;;;;;1.83;1.00;;;;;;;20.66;53.22;96224.34;5095977;28;20150;-77
2021/06/17 00:11:35;;;;;;;1.50;1.20;;;;;;;20.62;53.55;96224.16;5096008;28;20063;-75
2021/06/17 00:14:02;;;;;;;0.90;0.90;;;;;;;20.59;53.42;96229.25;5096127;28;20024;-75
2021/06/17 00:16:28;;;;;;;1.23;1.02;;;;;;;20.55;53.57;96222.88;5096646;28;20024;-77
2021/06/17 00:18:55;;;;;;;0.80;0.80;;;;;;;20.51;53.46;96219.19;5095984;28;20032;-76
2021/06/17 00:21:21;;;;;;;0.90;0.90;;;;;;;20.45;53.52;96224.59;5096232;28;20051;-77
2021/06/17 00:23:47;;;;;;;1.33;1.23;;;;;;;20.40;53.85;96223.88;5094767;28;20043;-77
2021/06/17 00:26:13;;;;;;;1.27;1.20;;;;;;;20.34;53.73;96215.16;5095546;28;20040;-77
2021/06/17 00:28:39;;;;;;;2.15;1.00;;;;;;;20.28;53.88;96218.94;5095466;28;20040;-77
2021/06/17 00:31:06;;;;;;;1.10;1.10;;;;;;;20.25;54.10;96224.84;5096566;28;20043;-77
2021/06/17 00:33:33;;;;;;;0.90;0.90;;;;;;;20.21;54.50;96224.63;5095920;28;20032;-77
2021/06/17 00:36:00;;;;;;;1.38;1.25;;;;;;;20.16;54.66;96224.69;5095986;28;20036;-76
2021/06/17 00:38:26;;;;;;;1.92;1.20;;;;;;;20.11;54.72;96216.75;5095648;28;20039;-77
2021/06/17 00:40:54;;;;;;;1.00;1.00;;;;;;;20.08;54.82;96218.13;5095708;28;20036;-77
2021/06/17 00:43:21;;;;;;;1.20;1.17;;;;;;;20.04;55.15;96209.13;5095770;28;20040;-77
2021/06/17 00:45:52;;;;;;;2.05;1.10;;;;;;;20.00;55.17;96208.09;5095965;28;20040;-76
2021/06/17 00:48:19;;;;;;;1.00;1.00;;;;;;;19.98;55.45;96206.81;5095451;28;20476;-76
2021/06/17 00:50:53;;;;;;;1.13;1.08;;;;;;;19.95;55.51;96205.50;5095291;28;20028;-76
2021/06/17 00:53:27;;;;;;;1.02;1.02;;;;;;;19.91;55.48;96193.03;5095659;28;20032;-77
2021/06/17 00:55:54;;;;;;;0.85;0.85;;;;;;;19.87;55.44;96190.16;5094915;28;20075;-77
2021/06/17 00:58:21;;;;;;;0.90;0.90;;;;;;;19.82;55.60;96191.03;5095329;28;20048;-77
2021/06/17 01:00:47;;;;;;;1.63;0.98;;;;;;;19.80;55.77;96185.19;5095419;28;20040;-77
2021/06/17 01:03:13;;;;;;;1.45;1.20;;;;;;;19.78;55.70;96181.19;5095241;28;20498;-77
2021/06/17 01:05:41;;;;;;;1.40;1.00;;;;;;;19.76;55.56;96178.03;5095243;28;20467;-77
2021/06/17 01:08:36;;;;;;;1.23;1.00;;;;;;;19.74;55.75;96185.50;5094834;28;20063;-77
2021/06/17 01:11:17;;;;;;;1.17;1.00;;;;;;;19.69;55.94;96191.66;5095342;28;20028;-77
2021/06/17 01:13:49;;;;;;;1.30;1.20;;;;;;;19.65;55.56;96182.63;5095046;28;20448;-77
2021/06/17 01:16:43;;;;;;;1.90;1.15;;;;;;;19.61;56.02;96192.25;5095109;28;20027;-77
2021/06/17 01:19:30;;;;;;;1.70;1.15;;;;;;;19.55;56.21;96196.84;5095284;28;20029;-77
2021/06/17 01:22:29;;;;;;;1.10;1.10;;;;;;;19.51;56.57;96189.69;5080925;28;20031;-77
2021/06/17 01:25:10;;;;;;;1.65;0.95;;;;;;;19.45;56.58;96184.44;5094974;28;20046;-78
2021/06/17 01:27:53;;;;;;;1.10;1.00;;;;;;;19.42;56.72;96179.69;5094434;28;20044;-77
2021/06/17 01:30:20;;;;;;;1.08;0.98;;;;;;;19.39;56.28;96166.94;5094736;28;20032;-77
2021/06/17 01:32:56;;;;;;;1.40;1.30;;;;;;;19.35;56.38;96167.78;5094572;28;20054;-77
2021/06/17 01:35:25;;;;;;;0.98;0.98;;;;;;;19.30;56.64;96165.97;5094811;28;20024;-77
2021/06/17 01:37:58;;;;;;;0.90;0.90;;;;;;;19.26;56.78;96163.06;5094369;28;20361;-77
2021/06/17 01:40:27;;;;;;;1.38;1.27;;;;;;;19.24;56.82;96164.44;5094506;28;20043;-78
2021/06/17 01:42:55;;;;;;;1.58;1.10;;;;;;;19.22;57.11;96166.59;5093400;28;20375;-77
2021/06/17 01:45:24;;;;;;;1.08;0.98;;;;;;;19.19;57.02;96165.28;5094478;28;20036;-77
2021/06/17 01:47:52;;;;;;;2.13;1.10;;;;;;;19.17;57.25;96164.78;5094272;28;20032;-77
2021/06/17 01:50:23;;;;;;;1.67;0.80;;;;;;;19.15;57.19;96163.44;5093956;28;20048;-77
2021/06/17 01:52:51;;;;;;;1.00;1.00;;;;;;;19.11;57.37;96165.88;5093679;28;20062;-77
2021/06/17 01:55:18;;;;;;;2.05;1.10;;;;;;;19.06;57.29;96153.41;5094281;28;20048;-78
2021/06/17 01:57:46;;;;;;;1.20;1.20;;;;;;;19.05;57.50;96161.69;5093007;28;20032;-76
2021/06/17 02:00:13;;;;;;;0.95;0.95;;;;;;;19.03;57.45;96151.31;5093769;28;20044;-78
2021/06/17 02:02:40;;;;;;;1.10;1.00;;;;;;;19.01;57.52;96150.81;5094266;28;20043;-80
2021/06/17 02:05:08;;;;;;;1.33;1.17;;;;;;;18.99;57.64;96144.97;5094275;28;20039;-78
2021/06/17 02:07:41;;;;;;;1.30;1.20;;;;;;;18.97;57.78;96151.66;5094225;28;20028;-77
2021/06/17 02:10:09;;;;;;;1.33;1.00;;;;;;;18.95;57.45;96153.78;5093276;28;20106;-76
2021/06/17 02:12:38;;;;;;;1.17;1.13;;;;;;;18.91;57.54;96153.53;5094307;28;20040;-77
2021/06/17 02:15:05;;;;;;;1.25;1.17;;;;;;;18.89;57.66;96163.66;5094300;28;20036;-76
2021/06/17 02:17:32;;;;;;;2.35;1.10;;;;;;;18.85;57.80;96163.41;5093052;28;20040;-76
2021/06/17 02:19:58;;;;;;;1.00;0.98;;;;;;;18.84;57.84;96169.03;5092789;28;20035;-76
2021/06/17 02:22:25;;;;;;;1.33;1.23;;;;;;;18.83;57.92;96170.06;5093728;28;20384;-76
2021/06/17 02:24:55;;;;;;;0.90;0.90;;;;;;;18.82;57.95;96165.84;5093300;28;20367;-75
2021/06/17 02:27:27;;;;;;;1.75;1.25;;;;;;;18.78;58.29;96160.28;5093208;28;20039;-76
2021/06/17 02:29:59;;;;;;;1.30;1.20;;;;;;;18.75;58.43;96162.66;5094294;28;20372;-76
2021/06/17 02:32:26;;;;;;;1.33;1.10;;;;;;;18.69;58.26;96161.94;5085289;28;20028;-76
2021/06/17 02:34:55;;;;;;;1.90;1.17;;;;;;;18.65;58.53;96167.00;5093995;28;20483;-75
2021/06/17 02:37:22;;;;;;;1.35;1.17;;;;;;;18.63;58.37;96178.97;5093981;28;20039;-75
2021/06/17 02:39:51;;;;;;;1.27;1.20;;;;;;;18.58;58.85;96181.63;5093213;28;20051;-75
2021/06/17 02:42:20;;;;;;;0.88;0.88;;;;;;;18.55;58.99;96172.38;5093340;28;20028;-76
2021/06/17 02:44:51;;;;;;;1.38;1.17;;;;;;;18.51;59.36;96170.53;5092264;28;20020;-75
2021/06/17 02:47:18;;;;;;;1.75;1.23;;;;;;;18.48;59.04;96173.72;5093345;28;20031;-75
2021/06/17 02:49:44;;;;;;;1.92;1.20;;;;;;;18.46;59.39;96168.72;5093132;28;20040;-75
2021/06/17 02:52:10;;;;;;;1.90;1.27;;;;;;;18.43;59.49;96172.69;5093482;28;20039;-75
2021/06/17 02:54:37;;;;;;;1.92;1.15;;;;;;;18.41;59.56;96174.03;5092431;28;20032;-75
2021/06/17 02:57:18;;;;;;;1.75;1.20;;;;;;;18.39;59.70;96176.97;5093395;28;20040;-75
2021/06/17 02:59:44;;;;;;;1.50;1.20;;;;;;;18.38;59.82;96172.72;5093389;28;20024;-75
2021/06/17 03:02:19;;;;;;;1.27;1.25;;;;;;;18.35;59.90;96173.28;5093387;28;20387;-76
2021/06/17 03:04:59;;;;;;;1.05;1.05;;;;;;;18.33;60.17;96174.59;5093203;28;20081;-77
2021/06/17 03:07:34;;;;;;;1.55;1.45;;;;;;;18.31;59.78;96171.44;5093601;28;20035;-78
2021/06/17 03:10:07;;;;;;;1.52;1.42;;;;;;;18.28;60.29;96172.00;5093505;28;20036;-76
2021/06/17 03:12:34;;;;;;;1.35;1.25;;;;;;;18.26;60.19;96172.25;5092932;28;20043;-77
2021/06/17 03:15:05;;;;;;;1.83;1.30;;;;;;;18.25;60.11;96181.31;5093441;28;20040;-76
2021/06/17 03:17:39;;;;;;;1.20;1.20;;;;;;;18.23;60.38;96181.56;5091117;28;20032;-76
2021/06/17 03:20:08;;;;;;;1.52;1.10;;;;;;;18.21;60.36;96183.72;5091362;28;20043;-77
2021/06/17 03:22:37;;;;;;;1.35;1.25;;;;;;;18.20;60.28;96182.09;5093070;28;20036;-76
2021/06/17 03:25:08;;;;;;;3.63;1.23;;;;;;;18.19;60.49;96182.41;5092926;28;20040;-76
2021/06/17 03:27:35;;;;;;;1.42;1.20;;;;;;;18.19;60.32;96193.81;5093547;28;20032;-76
2021/06/17 03:30:04;;;;;;;1.40;1.30;;;;;;;18.19;60.39;96206.28;5092794;28;20036;-76
2021/06/17 03:32:35;;;;;;;1.25;1.23;;;;;;;18.16;60.69;96196.97;5093192;28;20035;-75
2021/06/17 03:35:02;;;;;;;1.35;1.25;;;;;;;18.16;60.69;96202.28;5092984;28;20036;-78
2021/06/17 03:37:30;;;;;;;1.45;1.35;;;;;;;18.16;60.84;96204.94;5095102;28;20028;-77
2021/06/17 03:39:59;;;;;;;1.70;1.40;;;;;;;18.15;60.83;96198.06;5096869;28;20471;-77
2021/06/17 03:42:26;;;;;;;1.30;1.20;;;;;;;18.14;60.85;96199.13;5095481;28;20032;-75
2021/06/17 03:44:54;;;;;;;1.13;0.98;;;;;;;18.12;60.87;96189.84;5096788;28;20372;-75
2021/06/17 03:47:25;;;;;;;1.63;1.40;;;;;;;18.11;61.40;96199.66;5096557;28;20024;-75
2021/06/17 03:49:54;;;;;;;2.65;1.30;;;;;;;18.10;61.14;96195.44;5095271;28;20036;-76
2021/06/17 03:52:22;;;;;;;1.30;1.23;;;;;;;18.13;61.18;96202.06;5096773;28;20047;-76
2021/06/17 03:54:49;;;;;;;1.20;1.10;;;;;;;18.14;61.40;96199.13;5094540;28;20337;-76
2021/06/17 03:57:21;;;;;;;1.10;1.10;;;;;;;18.17;61.52;96203.09;5096649;28;20048;-76
2021/06/17 03:59:48;;;;;;;1.85;1.45;;;;;;;18.18;61.41;96210.00;5096405;28;20480;-75
2021/06/17 04:02:15;;;;;;;1.77;1.55;;;;;;;18.17;61.26;96203.09;5096589;28;20047;-76
2021/06/17 04:04:41;;;;;;;1.73;1.25;;;;;;;18.17;61.51;96209.19;5095993;28;20051;-76
2021/06/17 04:07:13;;;;;;;1.75;1.20;;;;;;;18.17;61.54;96211.06;5095728;28;20040;-76
2021/06/17 04:09:42;;;;;;;2.05;1.20;;;;;;;18.19;61.73;96216.91;5096297;28;20031;-78
2021/06/17 04:12:16;;;;;;;1.10;1.05;;;;;;;18.21;61.76;96222.72;5096456;28;20036;-78
2021/06/17 04:14:45;;;;;;;1.40;1.30;;;;;;;18.23;61.52;96209.97;5096366;28;20452;-78
2021/06/17 04:17:16;;;;;;;1.08;1.08;;;;;;;18.25;61.72;96216.59;5096388;28;20031;-78
2021/06/17 04:19:44;;;;;;;1.27;1.27;;;;;;;18.32;61.68;96228.78;5096156;28;20357;-78
2021/06/17 04:22:13;;;;;;;1.40;1.30;;;;;;;18.37;61.51;96231.41;5095928;28;20063;-78
2021/06/17 04:24:48;;;;;;;1.40;1.30;;;;;;;18.40;61.84;96234.31;5095939;28;20036;-78
2021/06/17 04:27:15;;;;;;;1.55;1.30;;;;;;;18.50;61.70;96236.13;5095613;28;20035;-78
2021/06/17 04:29:42;;;;;;;3.30;1.60;;;;;;;18.60;61.60;96235.28;5096397;28;20036;-78
2021/06/17 04:32:10;;;;;;;1.52;1.45;;;;;;;18.71;61.40;96236.81;5094755;28;20020;-78
2021/06/17 04:34:40;;;;;;;3.35;1.67;;;;;;;18.79;61.09;96240.78;5095874;28;20036;-78
2021/06/17 04:37:17;;;;;;;2.05;1.75;;;;;;;18.91;60.84;96232.47;5094520;28;20039;-75
2021/06/17 04:39:44;;;;;;;2.30;1.58;;;;;;;19.00;60.78;96238.78;5095724;28;20023;-77
2021/06/17 04:42:12;;;;;;;2.33;1.50;;;;;;;19.16;60.69;96237.59;5094453;28;20043;-78
2021/06/17 04:44:40;;;;;;;1.45;1.35;;;;;;;19.37;60.42;96230.25;5095845;28;20357;-77
2021/06/17 04:47:07;;;;;;;2.92;1.60;;;;;;;19.62;60.40;96231.09;5094965;28;20032;-77
2021/06/17 04:49:37;;;;;;;1.55;1.45;;;;;;;19.86;59.93;96231.13;5095309;28;20098;-77
2021/06/17 04:52:07;;;;;;;1.60;1.50;;;;;;;20.11;59.72;96231.94;5095797;28;20032;-77
2021/06/17 04:54:34;;;;;;;1.50;1.40;;;;;;;20.36;59.15;96226.31;5094588;28;20036;-77
2021/06/17 04:57:00;;;;;;;1.58;1.45;;;;;;;20.53;58.60;96222.38;5095469;28;20040;-77
2021/06/17 04:59:26;;;;;;;2.25;1.25;;;;;;;20.63;58.07;96220.38;5095334;28;20379;-77
2021/06/17 05:01:54;;;;;;;1.65;1.55;;;;;;;20.84;57.79;96226.22;5095089;28;20036;-77
2021/06/17 05:04:20;;;;;;;1.75;1.45;;;;;;;21.08;57.40;96218.16;5095598;28;20387;-77
2021/06/17 05:12:23;;;;;;;2.47;1.40;;;;;;;21.84;55.75;96196.59;5095053;28;20028;-77
2021/06/17 05:14:49;;;;;;;1.15;1.15;;;;;;;22.08;54.97;96192.94;5095439;28;20044;-77
2021/06/17 05:17:16;;;;;;;2.35;1.40;;;;;;;22.33;54.37;96196.19;5093681;28;20375;-77
2021/06/17 05:19:42;;;;;;;2.35;1.33;;;;;;;22.47;53.85;96188.97;5095004;28;20463;-77
2021/06/17 05:22:09;;;;;;;1.75;1.40;;;;;;;22.67;53.36;96190.38;5094636;28;20040;-77
2021/06/17 05:24:36;;;;;;;1.40;1.30;;;;;;;22.90;52.81;96191.19;5094579;28;20110;-77
2021/06/17 05:27:03;;;;;;;2.15;1.60;;;;;;;23.11;52.07;96188.84;5093637;28;20032;-77
2021/06/17 05:29:29;;;;;;;1.55;1.45;;;;;;;23.29;51.61;96185.19;5094781;28;20035;-76
2021/06/17 05:31:56;;;;;;;2.25;1.67;;;;;;;23.40;50.76;96180.38;5094769;28;20032;-77
2021/06/17 05:34:22;;;;;;;1.58;1.48;;;;;;;23.22;50.38;96174.13;5076602;28;20039;-77
2021/06/17 05:36:49;;;;;;;1.98;1.77;;;;;;;23.13;50.29;96184.00;5094882;28;20035;-77
2021/06/17 05:39:15;;;;;;;1.70;1.60;;;;;;;23.03;50.13;96178.88;5094549;28;20380;-76
2021/06/17 05:41:43;;;;;;;1.60;1.50;;;;;;;23.11;50.45;96186.16;5077128;28;20024;-74
2021/06/17 05:44:09;;;;;;;1.75;1.58;;;;;;;23.41;50.24;96184.63;5093555;28;20357;-74
2021/06/17 05:46:40;;;;;;;2.42;1.65;;;;;;;23.55;49.77;96189.09;5094586;28;20027;-74
2021/06/17 05:49:07;;;;;;;1.70;1.55;;;;;;;23.78;49.91;96187.19;5094580;28;20032;-74
2021/06/17 05:51:33;;;;;;;1.95;1.23;;;;;;;24.05;49.42;96178.16;5094421;28;20478;-75
2021/06/17 05:54:02;;;;;;;1.73;1.48;;;;;;;24.19;48.79;96186.03;5093999;28;20330;-76
2021/06/17 05:56:29;;;;;;;1.75;1.65;;;;;;;24.25;48.78;96182.94;5094528;28;20047;-73
2021/06/17 05:58:56;;;;;;;1.63;1.52;;;;;;;24.30;48.07;96185.44;5094063;28;20452;-73
2021/06/17 06:01:22;;;;;;;2.25;1.80;;;;;;;24.25;48.07;96185.63;5093204;28;20039;-73
2021/06/17 06:03:49;;;;;;;2.15;1.80;;;;;;;24.21;48.45;96187.34;5094002;28;20055;-73
2021/06/17 06:06:15;;;;;;;2.00;1.80;;;;;;;24.23;48.84;96195.03;5093077;28;20479;-74
2021/06/17 06:08:41;;;;;;;2.08;1.88;;;;;;;24.34;48.98;96191.00;5093949;28;20032;-74
2021/06/17 06:11:07;;;;;;;3.58;1.60;;;;;;;24.64;48.96;96193.88;5094382;28;20479;-74
2021/06/17 06:13:34;;;;;;;1.73;1.63;;;;;;;24.94;48.45;96194.03;5094006;28;20028;-76
2021/06/17 06:16:00;;;;;;;2.08;1.90;;;;;;;25.20;47.94;96192.16;5094269;28;20036;-75
2021/06/17 06:18:26;;;;;;;2.10;1.73;;;;;;;25.36;47.87;96194.34;5094005;28;20024;-75
2021/06/17 06:20:57;;;;;;;2.78;1.92;;;;;;;25.43;47.25;96202.66;5093654;28;20042;-75
2021/06/17 06:23:30;;;;;;;2.90;1.95;;;;;;;25.35;46.68;96206.19;5093807;28;20035;-75
2021/06/17 06:25:57;;;;;;;1.95;1.80;;;;;;;25.44;47.13;96215.78;5094129;28;20395;-76
2021/06/17 06:28:25;;;;;;;2.72;1.80;;;;;;;25.47;46.93;96215.16;5093583;28;20042;-75
2021/06/17 06:30:53;;;;;;;1.80;1.58;;;;;;;25.49;46.75;96215.63;5093615;28;20041;-75
2021/06/17 06:33:20;;;;;;;1.63;1.52;;;;;;;25.46;46.72;96223.53;5093724;28;20036;-75
2021/06/17 06:35:48;;;;;;;2.20;1.90;;;;;;;25.41;46.78;96224.50;5091734;28;20048;-76
2021/06/17 06:38:16;;;;;;;1.80;1.67;;;;;;;25.47;46.82;96228.59;5093502;28;20035;-76
2021/06/17 06:40:42;;;;;;;2.40;1.80;;;;;;;25.59;46.82;96227.13;5091699;28;20058;-75
2021/06/17 06:43:09;;;;;;;2.00;1.60;;;;;;;25.71;47.05;96221.88;5093777;28;20047;-75
2021/06/17 06:45:35;;;;;;;1.88;1.70;;;;;;;25.85;46.81;96221.66;5093509;28;20044;-76
2021/06/17 06:48:02;;;;;;;1.90;1.80;;;;;;;25.90;46.79;96224.22;5093697;28;20039;-75
2021/06/17 06:50:29;;;;;;;1.63;1.52;;;;;;;25.88;46.67;96221.81;5092114;28;20035;-76
2021/06/17 06:52:55;;;;;;;2.55;1.60;;;;;;;25.84;46.52;96228.16;5093458;28;20039;-76
2021/06/17 06:55:22;;;;;;;3.13;1.70;;;;;;;25.78;46.35;96235.59;5093254;28;20055;-75
2021/06/17 06:57:48;;;;;;;3.85;1.60;;;;;;;25.71;45.97;96230.72;5093332;28;20395;-74
2021/06/17 07:00:17;;;;;;;2.88;1.65;;;;;;;25.58;46.05;96239.00;5093219;28;20384;-75
2021/06/17 07:02:44;;;;;;;4.10;1.80;;;;;;;25.59;46.64;96245.94;5082363;28;20028;-74
2021/06/17 07:05:11;;;;;;;2.60;1.63;;;;;;;25.60;46.42;96240.25;5092912;28;20036;-74
2021/06/17 07:07:37;;;;;;;1.52;1.30;;;;;;;25.53;46.38;96247.97;5075354;28;20384;-74
2021/06/17 07:10:04;;;;;;;1.70;1.60;;;;;;;25.75;46.74;96244.31;5093243;28;20039;-74
2021/06/17 07:12:31;;;;;;;1.92;1.50;;;;;;;25.96;46.04;96233.69;5096434;28;20059;-74
2021/06/17 07:14:58;;;;;;;1.92;1.73;;;;;;;26.15;46.12;96240.56;5097379;28;20040;-74
2021/06/17 07:17:25;;;;;;;3.20;1.75;;;;;;;26.28;45.79;96232.25;5097321;28;20452;-74
2021/06/17 07:19:55;;;;;;;2.15;1.60;;;;;;;26.27;45.30;96236.06;5097701;28;20039;-74
2021/06/17 07:22:23;;;;;;;1.60;1.50;;;;;;;26.34;45.17;96232.88;5097148;28;20370;-74
2021/06/17 07:24:49;;;;;;;1.60;1.45;;;;;;;26.49;45.10;96236.88;5096890;28;20035;-74
2021/06/17 07:27:16;;;;;;;1.33;1.23;;;;;;;26.63;44.79;96223.22;5097228;28;20036;-74
2021/06/17 07:29:42;;;;;;;2.13;1.40;;;;;;;26.66;44.26;96219.88;5096934;28;20456;-73
2021/06/17 07:32:08;;;;;;;1.35;1.23;;;;;;;26.69;44.08;96224.59;5096995;28;20039;-74
2021/06/17 07:34:36;;;;;;;1.70;1.20;;;;;;;26.88;43.91;96221.47;5095932;28;20036;-74
2021/06/17 07:37:03;;;;;;;1.23;1.13;;;;;;;27.26;43.32;96217.84;5096846;28;20027;-74
2021/06/17 07:39:30;;;;;;;1.20;1.10;;;;;;;27.59;42.80;96212.41;5096744;28;20035;-74
2021/06/17 07:41:57;;;;;;;3.20;1.40;;;;;;;27.76;42.20;96208.75;5097158;28;20399;-73
2021/06/17 07:44:23;;;;;;;2.08;1.10;;;;;;;27.87;41.54;96211.84;5096935;28;20032;-75
2021/06/17 07:46:50;;;;;;;1.67;1.13;;;;;;;27.98;41.19;96206.78;5097059;28;20039;-75
2021/06/17 07:49:16;;;;;;;1.33;1.02;;;;;;;28.23;41.21;96207.56;5096914;28;20032;-75
2021/06/17 07:51:42;;;;;;;1.45;1.02;;;;;;;28.46;40.58;96213.28;5096419;28;20047;-76
2021/06/17 07:54:08;;;;;;;1.15;1.02;;;;;;;28.51;40.23;96216.53;5096831;28;20059;-75
2021/06/17 07:56:34;;;;;;;1.33;1.10;;;;;;;28.70;40.30;96215.16;5096617;28;20040;-76
2021/06/17 07:59:01;;;;;;;1.30;1.13;;;;;;;28.90;40.14;96213.44;5096473;28;20044;-75
2021/06/17 08:01:27;;;;;;;2.25;1.20;;;;;;;29.04;40.05;96216.53;5096232;28;20483;-76
2021/06/17 08:03:54;;;;;;;2.38;1.00;;;;;;;29.18;39.74;96218.09;5097000;28;20043;-75
2021/06/17 08:06:20;;;;;;;1.20;1.10;;;;;;;29.30;38.90;96220.75;5096425;28;20028;-75
2021/06/17 08:08:47;;;;;;;1.40;1.30;;;;;;;29.36;38.98;96227.47;5096261;28;20106;-75
2021/06/17 08:11:13;;;;;;;1.13;1.00;;;;;;;29.43;38.66;96224.94;5096498;28;20036;-75
2021/06/17 08:13:39;;;;;;;4.10;1.20;;;;;;;29.56;38.54;96212.16;5096388;28;20028;-75
2021/06/17 08:16:06;;;;;;;1.33;1.13;;;;;;;29.75;38.56;96222.31;5095953;28;20036;-75
2021/06/17 08:18:32;;;;;;;2.03;1.17;;;;;;;29.91;38.08;96228.50;5095575;28;20040;-75
2021/06/17 08:21:01;;;;;;;3.22;1.20;;;;;;;30.00;37.83;96233.75;5095385;28;20043;-75
2021/06/17 08:23:28;;;;;;;1.58;1.48;;;;;;;30.06;37.24;96237.75;5094629;28;20059;-76
2021/06/17 08:25:56;;;;;;;1.75;1.10;;;;;;;30.02;37.63;96228.00;5086400;28;20047;-75
2021/06/17 08:28:26;;;;;;;2.38;1.15;;;;;;;30.17;37.05;96226.41;5095474;28;20122;-75
2021/06/17 08:30:53;;;;;;;1.33;0.80;;;;;;;30.27;36.86;96234.75;5083701;28;20040;-75
2021/06/17 08:33:20;;;;;;;3.55;1.20;;;;;;;30.44;36.08;96225.50;5095467;28;20040;-74
2021/06/17 08:35:49;;;;;;;1.25;1.10;;;;;;;30.49;35.97;96236.09;5095759;28;20043;-76
2021/06/17 08:38:17;;;;;;;2.35;1.30;;;;;;;30.64;36.23;96234.47;5095867;28;20388;-75
2021/06/17 08:40:43;;;;;;;2.72;0.82;;;;;;;30.55;35.85;96231.16;5095537;28;20032;-75
2021/06/17 08:43:10;;;;;;;1.08;0.73;;;;;;;30.63;35.95;96232.13;5095262;28;20043;-74
2021/06/17 08:45:36;;;;;;;1.27;0.82;;;;;;;30.70;36.07;96234.97;5095594;28;20024;-74
2021/06/17 08:48:02;;;;;;;1.15;0.80;;;;;;;30.64;35.57;96242.59;5095005;28;20036;-75
2021/06/17 08:50:29;;;;;;;0.95;0.70;;;;;;;30.74;35.16;96235.81;5095755;28;20043;-75
2021/06/17 08:52:56;;;;;;;0.70;0.70;;;;;;;31.09;34.74;96233.09;5094192;28;20069;-74
2021/06/17 08:55:24;;;;;;;2.08;0.85;;;;;;;31.08;34.31;96230.75;5095156;28;20515;-74
2021/06/17 08:57:52;;;;;;;1.30;0.73;;;;;;;30.80;34.74;96234.41;5095126;28;20059;-75
2021/06/17 09:00:22;;;;;;;1.73;0.90;;;;;;;30.45;35.03;96232.50;5095409;28;20484;-74
2021/06/17 09:02:58;;;;;;;0.60;0.60;;;;;;;30.17;37.32;96240.72;5095422;28;20032;-75
2021/06/17 09:05:26;;;;;;;1.30;1.00;;;;;;;30.34;36.03;96226.06;5093727;28;20031;-75
2021/06/17 09:07:53;;;;;;;1.63;0.90;;;;;;;30.44;36.12;96230.16;5094897;28;20490;-75
2021/06/17 09:10:21;;;;;;;1.45;1.00;;;;;;;30.54;36.30;96230.38;5094761;28;20044;-75
2021/06/17 09:12:52;;;;;;;0.98;0.90;;;;;;;30.63;35.91;96238.31;5095010;28;20043;-74
2021/06/17 09:15:31;;;;;;;0.70;0.70;;;;;;;30.86;35.99;96237.63;5095112;28;20028;-74
2021/06/17 09:18:11;;;;;;;0.98;0.98;;;;;;;30.91;34.62;96219.22;5095297;28;20032;-75
2021/06/17 09:20:42;;;;;;;2.13;0.80;;;;;;;30.80;35.50;96226.28;5094897;28;20020;-74
2021/06/17 09:23:22;;;;;;;1.75;0.85;;;;;;;30.75;36.02;96232.78;5095087;28;20460;-74
2021/06/17 09:25:58;;;;;;;1.17;1.00;;;;;;;30.84;35.19;96237.97;5094990;28;20024;-74
2021/06/17 09:28:52;;;;;;;0.77;0.70;;;;;;;30.99;35.26;96235.59;5082796;28;20042;-75
2021/06/17 09:31:22;;;;;;;1.90;1.00;;;;;;;31.19;35.55;96229.03;5094977;28;20028;-76
2021/06/17 09:33:52;;;;;;;1.10;0.90;;;;;;;31.42;35.03;96231.03;5094806;28;20270;-76
2021/06/17 09:36:29;;;;;;;0.95;0.90;;;;;;;31.47;34.46;96238.88;5094095;28;20031;-75
2021/06/17 09:39:03;;;;;;;3.78;0.93;;;;;;;31.69;34.74;96235.44;5094993;28;20040;-74
2021/06/17 09:41:33;;;;;;;0.90;0.90;;;;;;;32.04;34.11;96237.19;5094767;28;20031;-74
2021/06/17 09:44:00;;;;;;;1.17;0.85;;;;;;;32.09;34.09;96250.47;5094153;28;20388;-74
2021/06/17 09:46:26;;;;;;;0.70;0.70;;;;;;;31.98;33.83;96260.31;5094186;28;20050;-74
2021/06/17 09:48:53;;;;;;;1.20;0.90;;;;;;;32.00;33.94;96255.34;5094250;28;20036;-74
2021/06/17 09:51:40;;;;;;;0.70;0.70;;;;;;;31.94;33.98;96257.56;5094304;28;20039;-75
2021/06/17 09:54:17;;;;;;;0.90;0.90;;;;;;;31.84;34.09;96252.72;5094312;28;20052;-75
2021/06/17 09:56:48;;;;;;;2.55;1.10;;;;;;;31.80;33.68;96253.81;5094688;28;20044;-74
2021/06/17 09:59:31;;;;;;;0.85;0.85;;;;;;;31.96;33.31;96249.84;5094623;28;20039;-74
2021/06/17 10:01:58;;;;;;;0.93;0.87;;;;;;;32.05;33.52;96251.56;5093857;28;20048;-75
2021/06/17 10:04:24;;;;;;;1.30;0.80;;;;;;;32.17;33.46;96245.91;5094166;28;20033;-74
2021/06/17 10:06:51;;;;;;;1.65;0.80;;;;;;;32.28;33.42;96244.16;5094224;28;20028;-74
2021/06/17 10:09:17;;;;;;;0.88;0.88;;;;;;;32.29;33.81;96250.38;5094254;28;20032;-74
2021/06/17 10:11:44;;;;;;;1.25;0.90;;;;;;;32.21;34.06;96246.75;5093745;28;20044;-74
2021/06/17 10:14:12;;;;;;;2.45;0.93;;;;;;;32.16;33.86;96245.13;5093872;28;20036;-74
2021/06/17 10:16:42;;;;;;;1.67;0.90;;;;;;;32.32;34.50;96252.38;5094194;28;20039;-74
2021/06/17 10:19:09;;;;;;;0.80;0.80;;;;;;;32.35;34.01;96246.19;5094519;28;20468;-76
2021/06/17 10:21:36;;;;;;;1.38;0.80;;;;;;;32.45;33.95;96256.44;5093882;28;20039;-74
2021/06/17 10:24:10;;;;;;;1.25;0.88;;;;;;;32.67;33.97;96240.47;5094067;28;20445;-74
2021/06/17 10:26:45;;;;;;;2.15;1.08;;;;;;;32.97;32.62;96243.22;5093913;28;20024;-75
2021/06/17 10:29:42;;;;;;;1.00;0.90;;;;;;;33.25;32.00;96228.44;5093963;28;20360;-74
2021/06/17 10:32:12;;;;;;;1.45;0.90;;;;;;;33.40;32.16;96223.94;5084923;28;20384;-74
2021/06/17 10:34:40;;;;;;;2.85;0.95;;;;;;;33.36;31.40;96237.47;5093572;28;20043;-74
2021/06/17 10:37:19;;;;;;;1.38;0.80;;;;;;;33.25;30.61;96231.91;5093367;28;20032;-75
2021/06/17 10:39:58;;;;;;;0.80;0.80;;;;;;;33.16;30.53;96236.88;5094079;28;20024;-74
2021/06/17 10:42:24;;;;;;;0.88;0.75;;;;;;;33.28;30.42;96244.75;5093698;28;20379;-75
2021/06/17 10:45:04;;;;;;;1.23;0.80;;;;;;;33.48;30.96;96244.59;5093710;28;20024;-74
2021/06/17 10:50:20;;;;;;;1.25;0.80;;;;;;;33.69;30.80;96230.47;5093045;28;20040;-74
2021/06/17 10:52:50;;;;;;;2.08;1.05;;;;;;;33.82;30.97;96228.25;5093757;28;20032;-74
2021/06/17 10:55:20;;;;;;;4.10;1.10;;;;;;;33.89;30.53;96229.09;5093430;28;20048;-74
2021/06/17 10:57:50;;;;;;;2.50;0.88;;;;;;;34.00;30.52;96226.47;5093111;28;20422;-74
2021/06/17 11:00:28;;;;;;;1.08;0.80;;;;;;;34.13;29.77;96226.97;5093220;28;20388;-74
2021/06/17 11:02:56;;;;;;;2.03;0.90;;;;;;;34.26;30.15;96225.50;5092956;28;20040;-74
2021/06/17 11:05:32;;;;;;;3.40;1.10;;;;;;;34.27;28.54;96223.56;5093913;28;20028;-74
2021/06/17 11:08:16;;;;;;;0.85;0.85;;;;;;;34.42;29.30;96221.72;5081029;28;20024;-74
2021/06/17 11:11:01;;;;;;;1.13;0.85;;;;;;;34.64;30.50;96236.28;5093168;28;20038;-74
2021/06/17 11:13:38;;;;;;;0.77;0.75;;;;;;;34.85;30.22;96228.22;5093593;28;20028;-74
2021/06/17 11:16:05;;;;;;;1.77;0.88;;;;;;;35.01;29.52;96214.28;5093359;28;20036;-74
2021/06/17 11:18:52;;;;;;;1.30;1.17;;;;;;;35.06;29.76;96213.13;5093303;28;20036;-75
2021/06/17 11:21:21;;;;;;;1.80;1.13;;;;;;;35.10;29.63;96214.69;5093189;28;20074;-74
2021/06/17 11:23:51;;;;;;;0.90;0.90;;;;;;;35.13;28.79;96215.88;5092989;28;20055;-74
2021/06/17 11:26:46;;;;;;;2.08;1.05;;;;;;;35.13;28.59;96205.78;5093424;28;20035;-74
2021/06/17 11:29:35;;;;;;;0.95;0.95;;;;;;;35.15;28.24;96205.41;5082878;28;20040;-74
2021/06/17 11:32:03;;;;;;;0.85;0.80;;;;;;;35.28;29.45;96208.53;5082982;28;20376;-74
2021/06/17 11:34:30;;;;;;;1.15;0.80;;;;;;;35.44;29.12;96210.94;5093318;28;20388;-74
2021/06/17 11:37:03;;;;;;;0.60;0.60;;;;;;;35.62;28.81;96202.78;5093014;28;20376;-74
2021/06/17 11:39:32;;;;;;;0.90;0.70;;;;;;;35.70;28.80;96196.97;5092805;28;20031;-74
2021/06/17 11:42:01;;;;;;;1.88;1.00;;;;;;;35.75;28.50;96199.31;5092550;28;20032;-74
2021/06/17 11:44:29;;;;;;;1.33;0.90;;;;;;;35.74;28.05;96202.41;5093145;28;20028;-75
2021/06/17 11:47:14;;;;;;;0.98;0.90;;;;;;;35.51;26.67;96186.38;5092920;28;20035;-74
2021/06/17 11:49:45;;;;;;;2.10;0.85;;;;;;;35.32;27.39;96184.78;5092936;28;20035;-74
2021/06/17 11:52:17;;;;;;;0.80;0.80;;;;;;;35.30;27.51;96182.47;5093265;28;20468;-74
2021/06/17 11:54:44;;;;;;;1.33;0.95;;;;;;;35.24;27.47;96192.19;5092793;28;20044;-74